sensor_id;sensor_type;location;lat;lon;timestamp;temperature;humidity
19538;DHT22;9914;51.008;4.300;2023-03-13T00:01:28;11.70;99.90
19538;DHT22;9914;51.008;4.300;2023-03-13T00:03:54;11.80;99.90
19538;DHT22;9914;51.008;4.300;2023-03-13T00:06:22;11.80;99.90
19538;DHT22;9914;51.008;4.300;2023-03-13T00:08:48;11.80;99.90
19538;DHT22;9914;51.008;4.300;2023-03-13T00:11:14;11.80;99.90
19538;DHT22;9914;51.008;4.300;2023-03-13T00:13:41;11.80;99.90
19538;DHT22;9914;51.008;4.300;2023-03-13T00:16:13;11.90;99.90
19538;DHT22;9914;51.008;4.300;2023-03-13T00:18:47;11.90;99.90
19538;DHT22;9914;51.008;4.300;2023-03-13T00:21:13;11.90;99.90
19538;DHT22;9914;51.008;4.300;2023-03-13T00:23:39;12.00;99.90
19538;DHT22;9914;51.008;4.300;2023-03-13T00:26:07;12.00;99.90
19538;DHT22;9914;51.008;4.300;2023-03-13T00:28:35;12.10;99.90
19538;DHT22;9914;51.008;4.300;2023-03-13T00:31:23;12.10;99.90
19538;DHT22;9914;51.008;4.300;2023-03-13T00:33:52;12.10;99.90
19538;DHT22;9914;51.008;4.300;2023-03-13T00:36:29;12.20;99.90
19538;DHT22;9914;51.008;4.300;2023-03-13T00:38:56;12.20;99.90
19538;DHT22;9914;51.008;4.300;2023-03-13T00:41:27;12.20;99.90
19538;DHT22;9914;51.008;4.300;2023-03-13T00:43:53;12.20;99.90
19538;DHT22;9914;51.008;4.300;2023-03-13T00:46:21;12.20;99.90
19538;DHT22;9914;51.008;4.300;2023-03-13T00:48:47;12.20;99.90
19538;DHT22;9914;51.008;4.300;2023-03-13T00:51:13;12.30;99.90
19538;DHT22;9914;51.008;4.300;2023-03-13T00:53:40;12.20;99.90
19538;DHT22;9914;51.008;4.300;2023-03-13T00:56:09;12.30;99.90
19538;DHT22;9914;51.008;4.300;2023-03-13T00:58:36;12.30;99.90
19538;DHT22;9914;51.008;4.300;2023-03-13T01:01:12;12.30;99.90
19538;DHT22;9914;51.008;4.300;2023-03-13T01:03:39;12.30;99.90
19538;DHT22;9914;51.008;4.300;2023-03-13T01:06:08;12.40;99.90
19538;DHT22;9914;51.008;4.300;2023-03-13T01:08:35;12.30;99.90
19538;DHT22;9914;51.008;4.300;2023-03-13T01:11:13;12.40;99.90
19538;DHT22;9914;51.008;4.300;2023-03-13T01:13:39;12.40;99.90
19538;DHT22;9914;51.008;4.300;2023-03-13T01:16:17;12.40;99.90
19538;DHT22;9914;51.008;4.300;2023-03-13T01:18:45;12.50;99.90
19538;DHT22;9914;51.008;4.300;2023-03-13T01:21:11;12.50;99.90
19538;DHT22;9914;51.008;4.300;2023-03-13T01:23:37;12.60;99.90
19538;DHT22;9914;51.008;4.300;2023-03-13T01:26:05;12.60;99.90
19538;DHT22;9914;51.008;4.300;2023-03-13T01:28:31;12.60;99.90
19538;DHT22;9914;51.008;4.300;2023-03-13T01:30:57;12.70;99.90
19538;DHT22;9914;51.008;4.300;2023-03-13T01:33:23;12.70;99.90
19538;DHT22;9914;51.008;4.300;2023-03-13T01:35:49;12.70;99.90
19538;DHT22;9914;51.008;4.300;2023-03-13T01:38:14;12.70;99.90
19538;DHT22;9914;51.008;4.300;2023-03-13T01:40:46;12.70;99.90
19538;DHT22;9914;51.008;4.300;2023-03-13T01:43:23;12.80;99.90
19538;DHT22;9914;51.008;4.300;2023-03-13T01:45:53;12.80;99.90
19538;DHT22;9914;51.008;4.300;2023-03-13T01:48:26;12.80;99.90
19538;DHT22;9914;51.008;4.300;2023-03-13T01:50:54;12.80;99.90
19538;DHT22;9914;51.008;4.300;2023-03-13T01:53:21;12.90;99.90
19538;DHT22;9914;51.008;4.300;2023-03-13T01:55:48;12.90;99.90
19538;DHT22;9914;51.008;4.300;2023-03-13T01:58:14;12.90;99.90
19538;DHT22;9914;51.008;4.300;2023-03-13T02:00:40;12.90;99.90
19538;DHT22;9914;51.008;4.300;2023-03-13T02:03:11;12.90;99.90
19538;DHT22;9914;51.008;4.300;2023-03-13T02:05:39;12.90;99.90
19538;DHT22;9914;51.008;4.300;2023-03-13T02:08:10;12.90;99.90
19538;DHT22;9914;51.008;4.300;2023-03-13T02:10:41;12.90;99.90
19538;DHT22;9914;51.008;4.300;2023-03-13T02:13:09;13.00;99.90
19538;DHT22;9914;51.008;4.300;2023-03-13T02:15:39;13.00;99.90
19538;DHT22;9914;51.008;4.300;2023-03-13T02:18:05;13.00;99.90
19538;DHT22;9914;51.008;4.300;2023-03-13T02:20:31;13.10;99.90
19538;DHT22;9914;51.008;4.300;2023-03-13T02:25:51;13.10;99.90
19538;DHT22;9914;51.008;4.300;2023-03-13T02:28:27;13.20;99.90
19538;DHT22;9914;51.008;4.300;2023-03-13T02:30:57;13.30;99.90
19538;DHT22;9914;51.008;4.300;2023-03-13T02:33:29;13.30;99.90
19538;DHT22;9914;51.008;4.300;2023-03-13T02:35:56;13.30;99.90
19538;DHT22;9914;51.008;4.300;2023-03-13T02:38:28;13.40;99.90
19538;DHT22;9914;51.008;4.300;2023-03-13T02:40:55;13.30;99.90
19538;DHT22;9914;51.008;4.300;2023-03-13T02:43:26;13.30;99.90
19538;DHT22;9914;51.008;4.300;2023-03-13T02:46:20;13.30;99.90
19538;DHT22;9914;51.008;4.300;2023-03-13T02:48:48;13.40;99.90
19538;DHT22;9914;51.008;4.300;2023-03-13T02:53:55;13.50;99.90
19538;DHT22;9914;51.008;4.300;2023-03-13T02:56:23;13.60;99.90
19538;DHT22;9914;51.008;4.300;2023-03-13T02:58:49;13.50;99.90
19538;DHT22;9914;51.008;4.300;2023-03-13T03:01:15;13.50;99.90
19538;DHT22;9914;51.008;4.300;2023-03-13T03:03:41;13.50;99.90
19538;DHT22;9914;51.008;4.300;2023-03-13T03:06:07;13.50;99.90
19538;DHT22;9914;51.008;4.300;2023-03-13T03:08:33;13.50;99.90
19538;DHT22;9914;51.008;4.300;2023-03-13T03:10:59;13.60;99.90
19538;DHT22;9914;51.008;4.300;2023-03-13T03:13:26;13.60;99.90
19538;DHT22;9914;51.008;4.300;2023-03-13T03:15:51;13.60;99.90
19538;DHT22;9914;51.008;4.300;2023-03-13T03:18:17;13.70;99.90
19538;DHT22;9914;51.008;4.300;2023-03-13T03:20:43;13.60;99.90
19538;DHT22;9914;51.008;4.300;2023-03-13T03:23:08;13.60;99.90
19538;DHT22;9914;51.008;4.300;2023-03-13T03:25:34;13.70;99.90
19538;DHT22;9914;51.008;4.300;2023-03-13T03:27:59;13.70;99.90
19538;DHT22;9914;51.008;4.300;2023-03-13T03:30:25;13.70;99.90
19538;DHT22;9914;51.008;4.300;2023-03-13T03:32:51;13.70;99.90
19538;DHT22;9914;51.008;4.300;2023-03-13T03:35:16;13.70;99.90
19538;DHT22;9914;51.008;4.300;2023-03-13T03:37:42;13.80;99.90
19538;DHT22;9914;51.008;4.300;2023-03-13T03:40:08;13.70;99.90
19538;DHT22;9914;51.008;4.300;2023-03-13T03:42:34;13.70;99.90
19538;DHT22;9914;51.008;4.300;2023-03-13T03:45:00;13.80;99.90
19538;DHT22;9914;51.008;4.300;2023-03-13T03:47:26;13.80;99.90
19538;DHT22;9914;51.008;4.300;2023-03-13T03:49:52;13.80;99.90
19538;DHT22;9914;51.008;4.300;2023-03-13T03:52:17;13.80;99.90
19538;DHT22;9914;51.008;4.300;2023-03-13T03:54:43;13.90;99.90
19538;DHT22;9914;51.008;4.300;2023-03-13T03:57:08;13.90;99.90
19538;DHT22;9914;51.008;4.300;2023-03-13T03:59:34;13.90;99.90
19538;DHT22;9914;51.008;4.300;2023-03-13T04:01:59;13.90;99.90
19538;DHT22;9914;51.008;4.300;2023-03-13T04:04:25;13.90;99.90
19538;DHT22;9914;51.008;4.300;2023-03-13T04:06:51;13.90;99.90
19538;DHT22;9914;51.008;4.300;2023-03-13T04:09:17;13.90;99.90
19538;DHT22;9914;51.008;4.300;2023-03-13T04:11:42;13.90;99.90
19538;DHT22;9914;51.008;4.300;2023-03-13T04:14:08;13.90;99.90
19538;DHT22;9914;51.008;4.300;2023-03-13T04:16:34;13.90;99.90
19538;DHT22;9914;51.008;4.300;2023-03-13T04:18:59;13.90;99.90
19538;DHT22;9914;51.008;4.300;2023-03-13T04:21:25;14.00;99.90
19538;DHT22;9914;51.008;4.300;2023-03-13T04:23:50;14.00;99.90
19538;DHT22;9914;51.008;4.300;2023-03-13T04:26:16;14.00;99.90
19538;DHT22;9914;51.008;4.300;2023-03-13T04:28:41;14.00;99.90
19538;DHT22;9914;51.008;4.300;2023-03-13T04:31:07;14.00;99.90
19538;DHT22;9914;51.008;4.300;2023-03-13T04:33:33;14.10;99.90
19538;DHT22;9914;51.008;4.300;2023-03-13T04:36:01;14.10;99.90
19538;DHT22;9914;51.008;4.300;2023-03-13T04:38:27;14.10;99.90
19538;DHT22;9914;51.008;4.300;2023-03-13T04:40:52;14.10;99.90
19538;DHT22;9914;51.008;4.300;2023-03-13T04:43:18;14.10;99.90
19538;DHT22;9914;51.008;4.300;2023-03-13T04:45:43;14.10;99.90
19538;DHT22;9914;51.008;4.300;2023-03-13T04:48:09;14.10;99.90
19538;DHT22;9914;51.008;4.300;2023-03-13T04:50:34;14.00;99.90
19538;DHT22;9914;51.008;4.300;2023-03-13T04:53:00;14.10;99.90
19538;DHT22;9914;51.008;4.300;2023-03-13T04:55:26;14.00;99.90
19538;DHT22;9914;51.008;4.300;2023-03-13T04:57:51;14.00;99.90
19538;DHT22;9914;51.008;4.300;2023-03-13T05:00:17;14.00;99.90
19538;DHT22;9914;51.008;4.300;2023-03-13T05:02:42;14.00;99.90
19538;DHT22;9914;51.008;4.300;2023-03-13T05:05:08;14.00;99.90
19538;DHT22;9914;51.008;4.300;2023-03-13T05:07:34;14.00;99.90
19538;DHT22;9914;51.008;4.300;2023-03-13T05:09:59;14.10;99.90
19538;DHT22;9914;51.008;4.300;2023-03-13T05:12:25;14.10;99.90
19538;DHT22;9914;51.008;4.300;2023-03-13T05:14:50;14.10;99.90
19538;DHT22;9914;51.008;4.300;2023-03-13T05:17:16;14.10;99.90
19538;DHT22;9914;51.008;4.300;2023-03-13T05:19:42;14.10;99.90
19538;DHT22;9914;51.008;4.300;2023-03-13T05:22:08;14.10;99.90
19538;DHT22;9914;51.008;4.300;2023-03-13T05:24:34;14.10;99.90
19538;DHT22;9914;51.008;4.300;2023-03-13T05:26:59;14.00;99.90
19538;DHT22;9914;51.008;4.300;2023-03-13T05:29:25;14.00;99.90
19538;DHT22;9914;51.008;4.300;2023-03-13T05:31:51;14.00;99.90
19538;DHT22;9914;51.008;4.300;2023-03-13T05:34:17;14.00;99.90
19538;DHT22;9914;51.008;4.300;2023-03-13T05:36:42;14.10;99.90
19538;DHT22;9914;51.008;4.300;2023-03-13T05:39:08;14.00;99.90
19538;DHT22;9914;51.008;4.300;2023-03-13T05:41:33;14.00;99.90
19538;DHT22;9914;51.008;4.300;2023-03-13T05:43:59;13.90;99.90
19538;DHT22;9914;51.008;4.300;2023-03-13T05:46:25;13.90;99.90
19538;DHT22;9914;51.008;4.300;2023-03-13T05:48:50;13.90;99.90
19538;DHT22;9914;51.008;4.300;2023-03-13T05:51:17;14.00;99.90
19538;DHT22;9914;51.008;4.300;2023-03-13T05:53:43;14.00;99.90
19538;DHT22;9914;51.008;4.300;2023-03-13T05:56:09;14.00;99.90
19538;DHT22;9914;51.008;4.300;2023-03-13T05:58:34;14.00;99.90
19538;DHT22;9914;51.008;4.300;2023-03-13T06:01:08;14.00;99.90
19538;DHT22;9914;51.008;4.300;2023-03-13T06:03:34;14.00;99.90
19538;DHT22;9914;51.008;4.300;2023-03-13T06:06:00;14.00;99.90
19538;DHT22;9914;51.008;4.300;2023-03-13T06:08:25;14.00;99.90
19538;DHT22;9914;51.008;4.300;2023-03-13T06:10:52;14.00;99.90
19538;DHT22;9914;51.008;4.300;2023-03-13T06:13:17;13.90;99.90
19538;DHT22;9914;51.008;4.300;2023-03-13T06:15:50;14.00;99.90
19538;DHT22;9914;51.008;4.300;2023-03-13T06:18:16;14.00;99.90
19538;DHT22;9914;51.008;4.300;2023-03-13T06:20:41;14.00;99.90
19538;DHT22;9914;51.008;4.300;2023-03-13T06:23:07;14.00;99.90
19538;DHT22;9914;51.008;4.300;2023-03-13T06:25:34;14.10;99.90
19538;DHT22;9914;51.008;4.300;2023-03-13T06:27:59;14.10;99.90
19538;DHT22;9914;51.008;4.300;2023-03-13T06:30:25;14.10;99.90
19538;DHT22;9914;51.008;4.300;2023-03-13T06:32:50;14.10;99.90
19538;DHT22;9914;51.008;4.300;2023-03-13T06:35:16;14.20;99.90
19538;DHT22;9914;51.008;4.300;2023-03-13T06:37:42;14.10;99.90
19538;DHT22;9914;51.008;4.300;2023-03-13T06:40:08;14.20;99.90
19538;DHT22;9914;51.008;4.300;2023-03-13T06:42:34;14.20;99.90
19538;DHT22;9914;51.008;4.300;2023-03-13T06:44:59;14.20;99.90
19538;DHT22;9914;51.008;4.300;2023-03-13T06:47:25;14.20;99.90
19538;DHT22;9914;51.008;4.300;2023-03-13T06:49:50;14.20;99.90
19538;DHT22;9914;51.008;4.300;2023-03-13T06:52:16;14.20;99.90
19538;DHT22;9914;51.008;4.300;2023-03-13T06:54:42;14.20;99.90
19538;DHT22;9914;51.008;4.300;2023-03-13T06:57:07;14.20;99.90
19538;DHT22;9914;51.008;4.300;2023-03-13T06:59:33;14.20;99.90
19538;DHT22;9914;51.008;4.300;2023-03-13T07:01:58;14.10;99.90
19538;DHT22;9914;51.008;4.300;2023-03-13T07:04:24;14.20;99.90
19538;DHT22;9914;51.008;4.300;2023-03-13T07:06:50;14.20;99.90
19538;DHT22;9914;51.008;4.300;2023-03-13T07:09:16;14.30;99.90
19538;DHT22;9914;51.008;4.300;2023-03-13T07:11:44;14.40;99.90
19538;DHT22;9914;51.008;4.300;2023-03-13T07:14:09;14.30;99.90
19538;DHT22;9914;51.008;4.300;2023-03-13T07:16:35;14.40;99.90
19538;DHT22;9914;51.008;4.300;2023-03-13T07:19:01;14.40;99.90
19538;DHT22;9914;51.008;4.300;2023-03-13T07:21:26;14.40;99.90
19538;DHT22;9914;51.008;4.300;2023-03-13T07:23:52;14.50;99.90
19538;DHT22;9914;51.008;4.300;2023-03-13T07:26:18;14.40;99.90
19538;DHT22;9914;51.008;4.300;2023-03-13T07:28:44;14.30;99.90
19538;DHT22;9914;51.008;4.300;2023-03-13T07:31:18;14.30;99.90
19538;DHT22;9914;51.008;4.300;2023-03-13T07:33:45;14.40;99.90
19538;DHT22;9914;51.008;4.300;2023-03-13T07:36:12;14.40;99.90
19538;DHT22;9914;51.008;4.300;2023-03-13T07:38:38;14.40;99.90
19538;DHT22;9914;51.008;4.300;2023-03-13T07:41:04;14.50;99.90
19538;DHT22;9914;51.008;4.300;2023-03-13T07:43:30;14.50;99.90
19538;DHT22;9914;51.008;4.300;2023-03-13T07:46:01;14.60;99.90
19538;DHT22;9914;51.008;4.300;2023-03-13T07:48:34;14.60;99.90
19538;DHT22;9914;51.008;4.300;2023-03-13T07:51:00;14.60;99.90
19538;DHT22;9914;51.008;4.300;2023-03-13T07:53:26;14.50;99.90
19538;DHT22;9914;51.008;4.300;2023-03-13T07:56:02;14.60;99.90
19538;DHT22;9914;51.008;4.300;2023-03-13T07:58:30;14.60;99.90
19538;DHT22;9914;51.008;4.300;2023-03-13T08:00:56;14.60;99.90
19538;DHT22;9914;51.008;4.300;2023-03-13T08:03:23;14.60;99.90
19538;DHT22;9914;51.008;4.300;2023-03-13T08:06:00;14.60;99.90
19538;DHT22;9914;51.008;4.300;2023-03-13T08:08:26;14.60;99.90
19538;DHT22;9914;51.008;4.300;2023-03-13T08:10:52;14.70;99.90
19538;DHT22;9914;51.008;4.300;2023-03-13T08:13:18;14.70;99.90
19538;DHT22;9914;51.008;4.300;2023-03-13T08:15:43;14.70;99.90
19538;DHT22;9914;51.008;4.300;2023-03-13T08:18:09;14.80;99.90
19538;DHT22;9914;51.008;4.300;2023-03-13T08:20:34;14.80;99.90
19538;DHT22;9914;51.008;4.300;2023-03-13T08:23:00;14.70;99.90
19538;DHT22;9914;51.008;4.300;2023-03-13T08:25:25;14.60;99.90
19538;DHT22;9914;51.008;4.300;2023-03-13T08:27:51;14.60;99.90
19538;DHT22;9914;51.008;4.300;2023-03-13T08:30:17;14.60;99.90
19538;DHT22;9914;51.008;4.300;2023-03-13T08:32:43;14.70;99.90
19538;DHT22;9914;51.008;4.300;2023-03-13T08:35:08;14.80;99.90
19538;DHT22;9914;51.008;4.300;2023-03-13T08:37:34;14.80;99.90
19538;DHT22;9914;51.008;4.300;2023-03-13T08:39:59;15.00;99.90
19538;DHT22;9914;51.008;4.300;2023-03-13T08:42:25;15.10;99.90
19538;DHT22;9914;51.008;4.300;2023-03-13T08:44:51;15.30;99.90
19538;DHT22;9914;51.008;4.300;2023-03-13T08:47:16;15.40;99.90
19538;DHT22;9914;51.008;4.300;2023-03-13T08:49:45;15.50;99.90
19538;DHT22;9914;51.008;4.300;2023-03-13T08:52:10;15.60;99.90
19538;DHT22;9914;51.008;4.300;2023-03-13T08:54:36;15.40;99.90
19538;DHT22;9914;51.008;4.300;2023-03-13T08:57:02;15.40;99.90
19538;DHT22;9914;51.008;4.300;2023-03-13T08:59:27;15.40;99.90
19538;DHT22;9914;51.008;4.300;2023-03-13T09:01:53;15.50;99.90
19538;DHT22;9914;51.008;4.300;2023-03-13T09:04:18;15.50;99.90
19538;DHT22;9914;51.008;4.300;2023-03-13T09:06:44;15.60;99.90
19538;DHT22;9914;51.008;4.300;2023-03-13T09:09:11;15.70;99.90
19538;DHT22;9914;51.008;4.300;2023-03-13T09:11:38;15.70;99.90
19538;DHT22;9914;51.008;4.300;2023-03-13T09:14:05;15.70;99.90
19538;DHT22;9914;51.008;4.300;2023-03-13T09:16:31;15.60;99.90
19538;DHT22;9914;51.008;4.300;2023-03-13T09:18:58;15.60;99.90
19538;DHT22;9914;51.008;4.300;2023-03-13T09:21:29;15.60;99.90
19538;DHT22;9914;51.008;4.300;2023-03-13T09:23:55;15.60;99.90
19538;DHT22;9914;51.008;4.300;2023-03-13T09:26:21;15.80;99.90
19538;DHT22;9914;51.008;4.300;2023-03-13T09:28:47;15.80;99.90
19538;DHT22;9914;51.008;4.300;2023-03-13T09:31:15;15.80;99.90
19538;DHT22;9914;51.008;4.300;2023-03-13T09:33:41;15.90;99.90
19538;DHT22;9914;51.008;4.300;2023-03-13T09:36:08;16.00;99.90
19538;DHT22;9914;51.008;4.300;2023-03-13T09:38:35;16.20;99.90
19538;DHT22;9914;51.008;4.300;2023-03-13T09:41:04;16.20;99.90
19538;DHT22;9914;51.008;4.300;2023-03-13T09:46:25;16.30;99.90
19538;DHT22;9914;51.008;4.300;2023-03-13T09:48:56;16.40;99.90
19538;DHT22;9914;51.008;4.300;2023-03-13T09:56:57;16.20;99.90
19538;DHT22;9914;51.008;4.300;2023-03-13T09:59:46;16.10;99.90
19538;DHT22;9914;51.008;4.300;2023-03-13T10:02:29;16.20;99.90
19538;DHT22;9914;51.008;4.300;2023-03-13T10:05:25;16.20;99.90
19538;DHT22;9914;51.008;4.300;2023-03-13T10:08:13;16.40;99.90
19538;DHT22;9914;51.008;4.300;2023-03-13T10:16:36;16.60;99.90
19538;DHT22;9914;51.008;4.300;2023-03-13T10:19:15;16.40;99.90
19538;DHT22;9914;51.008;4.300;2023-03-13T10:21:46;16.50;99.90
19538;DHT22;9914;51.008;4.300;2023-03-13T10:24:36;16.50;99.90
19538;DHT22;9914;51.008;4.300;2023-03-13T10:27:04;16.50;99.90
19538;DHT22;9914;51.008;4.300;2023-03-13T10:29:30;16.70;99.90
19538;DHT22;9914;51.008;4.300;2023-03-13T10:32:01;16.80;99.90
19538;DHT22;9914;51.008;4.300;2023-03-13T10:37:14;17.00;99.90
19538;DHT22;9914;51.008;4.300;2023-03-13T10:39:40;17.10;99.90
19538;DHT22;9914;51.008;4.300;2023-03-13T10:44:48;17.60;99.90
19538;DHT22;9914;51.008;4.300;2023-03-13T10:47:14;17.60;99.90
19538;DHT22;9914;51.008;4.300;2023-03-13T10:49:49;17.50;99.90
19538;DHT22;9914;51.008;4.300;2023-03-13T10:55:02;17.20;99.90
19538;DHT22;9914;51.008;4.300;2023-03-13T10:57:42;17.10;99.90
19538;DHT22;9914;51.008;4.300;2023-03-13T11:00:28;17.00;99.90
19538;DHT22;9914;51.008;4.300;2023-03-13T11:02:54;16.80;99.90
19538;DHT22;9914;51.008;4.300;2023-03-13T11:05:30;16.90;99.90
19538;DHT22;9914;51.008;4.300;2023-03-13T11:07:56;17.00;99.90
19538;DHT22;9914;51.008;4.300;2023-03-13T11:10:26;17.00;99.90
19538;DHT22;9914;51.008;4.300;2023-03-13T11:12:55;17.00;99.90
19538;DHT22;9914;51.008;4.300;2023-03-13T11:15:44;17.10;99.90
19538;DHT22;9914;51.008;4.300;2023-03-13T11:18:21;17.00;99.90
19538;DHT22;9914;51.008;4.300;2023-03-13T11:20:50;17.00;99.90
19538;DHT22;9914;51.008;4.300;2023-03-13T11:23:41;16.90;99.90
19538;DHT22;9914;51.008;4.300;2023-03-13T11:26:25;16.80;99.90
19538;DHT22;9914;51.008;4.300;2023-03-13T11:31:40;17.30;99.90
19538;DHT22;9914;51.008;4.300;2023-03-13T11:37:10;17.70;99.90
19538;DHT22;9914;51.008;4.300;2023-03-13T11:39:53;17.60;99.90
19538;DHT22;9914;51.008;4.300;2023-03-13T11:48:13;17.90;99.90
19538;DHT22;9914;51.008;4.300;2023-03-13T11:51:00;18.00;99.90
19538;DHT22;9914;51.008;4.300;2023-03-13T11:54:17;17.80;99.90
19538;DHT22;9914;51.008;4.300;2023-03-13T12:02:30;17.60;99.90
19538;DHT22;9914;51.008;4.300;2023-03-13T12:05:10;17.80;99.90
19538;DHT22;9914;51.008;4.300;2023-03-13T12:07:54;17.80;99.90
19538;DHT22;9914;51.008;4.300;2023-03-13T12:10:32;17.90;99.90
19538;DHT22;9914;51.008;4.300;2023-03-13T12:13:11;17.90;99.90
19538;DHT22;9914;51.008;4.300;2023-03-13T12:15:42;18.10;99.90
19538;DHT22;9914;51.008;4.300;2023-03-13T12:18:30;18.00;99.90
19538;DHT22;9914;51.008;4.300;2023-03-13T12:21:05;17.90;99.90
19538;DHT22;9914;51.008;4.300;2023-03-13T12:26:17;17.90;99.90
19538;DHT22;9914;51.008;4.300;2023-03-13T12:31:32;18.10;99.90
19538;DHT22;9914;51.008;4.300;2023-03-13T12:36:54;18.40;99.90
19538;DHT22;9914;51.008;4.300;2023-03-13T12:45:04;18.20;99.90
19538;DHT22;9914;51.008;4.300;2023-03-13T12:47:32;18.30;99.90
19538;DHT22;9914;51.008;4.300;2023-03-13T12:59:15;17.70;99.90
19538;DHT22;9914;51.008;4.300;2023-03-13T13:01:47;17.90;99.90
19538;DHT22;9914;51.008;4.300;2023-03-13T13:04:17;17.90;99.90
19538;DHT22;9914;51.008;4.300;2023-03-13T13:07:00;17.90;99.90
19538;DHT22;9914;51.008;4.300;2023-03-13T13:09:37;17.90;99.90
19538;DHT22;9914;51.008;4.300;2023-03-13T13:25:27;17.80;99.90
19538;DHT22;9914;51.008;4.300;2023-03-13T13:27:54;17.80;99.90
19538;DHT22;9914;51.008;4.300;2023-03-13T13:32:50;17.70;99.90
19538;DHT22;9914;51.008;4.300;2023-03-13T13:35:33;17.60;99.90
19538;DHT22;9914;51.008;4.300;2023-03-13T13:43:38;18.40;99.90
19538;DHT22;9914;51.008;4.300;2023-03-13T13:51:41;18.40;99.90
19538;DHT22;9914;51.008;4.300;2023-03-13T13:57:00;18.40;99.90
19538;DHT22;9914;51.008;4.300;2023-03-13T13:59:38;18.30;99.90
19538;DHT22;9914;51.008;4.300;2023-03-13T14:05:03;18.20;99.90
19538;DHT22;9914;51.008;4.300;2023-03-13T14:12:50;18.10;99.90
19538;DHT22;9914;51.008;4.300;2023-03-13T14:17:58;18.30;99.90
19538;DHT22;9914;51.008;4.300;2023-03-13T14:20:36;18.40;99.90
19538;DHT22;9914;51.008;4.300;2023-03-13T14:23:05;18.60;99.90
19538;DHT22;9914;51.008;4.300;2023-03-13T14:28:26;18.40;99.90
19538;DHT22;9914;51.008;4.300;2023-03-13T14:30:56;18.50;99.90
19538;DHT22;9914;51.008;4.300;2023-03-13T14:33:23;18.50;99.90
19538;DHT22;9914;51.008;4.300;2023-03-13T14:35:51;18.50;99.90
19538;DHT22;9914;51.008;4.300;2023-03-13T14:38:21;18.50;99.90
19538;DHT22;9914;51.008;4.300;2023-03-13T14:40:48;18.70;99.90
19538;DHT22;9914;51.008;4.300;2023-03-13T14:43:35;18.70;99.90
19538;DHT22;9914;51.008;4.300;2023-03-13T14:46:13;18.70;99.90
19538;DHT22;9914;51.008;4.300;2023-03-13T14:48:39;18.60;99.90
19538;DHT22;9914;51.008;4.300;2023-03-13T14:51:14;18.50;99.90
19538;DHT22;9914;51.008;4.300;2023-03-13T14:53:56;18.50;99.90
19538;DHT22;9914;51.008;4.300;2023-03-13T14:56:31;18.50;99.90
19538;DHT22;9914;51.008;4.300;2023-03-13T15:01:39;18.70;99.90
19538;DHT22;9914;51.008;4.300;2023-03-13T15:04:05;18.70;99.90
19538;DHT22;9914;51.008;4.300;2023-03-13T15:06:30;18.60;99.90
19538;DHT22;9914;51.008;4.300;2023-03-13T15:09:16;18.40;99.90
19538;DHT22;9914;51.008;4.300;2023-03-13T15:11:55;18.30;99.90
19538;DHT22;9914;51.008;4.300;2023-03-13T15:17:01;18.20;99.90
19538;DHT22;9914;51.008;4.300;2023-03-13T15:19:29;18.10;99.90
19538;DHT22;9914;51.008;4.300;2023-03-13T15:21:55;18.30;99.90
19538;DHT22;9914;51.008;4.300;2023-03-13T15:24:21;18.30;99.90
19538;DHT22;9914;51.008;4.300;2023-03-13T15:26:46;18.10;99.90
19538;DHT22;9914;51.008;4.300;2023-03-13T15:29:12;17.90;99.90
19538;DHT22;9914;51.008;4.300;2023-03-13T15:31:38;17.90;99.90
19538;DHT22;9914;51.008;4.300;2023-03-13T15:34:08;18.00;99.90
19538;DHT22;9914;51.008;4.300;2023-03-13T15:36:34;18.20;99.90
19538;DHT22;9914;51.008;4.300;2023-03-13T15:39:00;17.90;99.90
19538;DHT22;9914;51.008;4.300;2023-03-13T15:41:26;18.00;99.90
19538;DHT22;9914;51.008;4.300;2023-03-13T15:43:51;18.10;99.90
19538;DHT22;9914;51.008;4.300;2023-03-13T15:46:19;18.10;99.90
19538;DHT22;9914;51.008;4.300;2023-03-13T15:48:45;18.10;99.90
19538;DHT22;9914;51.008;4.300;2023-03-13T15:51:14;18.30;99.90
19538;DHT22;9914;51.008;4.300;2023-03-13T15:53:41;18.30;99.90
19538;DHT22;9914;51.008;4.300;2023-03-13T15:56:15;18.20;99.90
19538;DHT22;9914;51.008;4.300;2023-03-13T15:58:41;18.80;99.90
19538;DHT22;9914;51.008;4.300;2023-03-13T16:01:09;19.30;99.90
19538;DHT22;9914;51.008;4.300;2023-03-13T16:03:35;19.20;99.90
19538;DHT22;9914;51.008;4.300;2023-03-13T16:06:01;18.70;99.90
19538;DHT22;9914;51.008;4.300;2023-03-13T16:08:28;18.30;99.90
19538;DHT22;9914;51.008;4.300;2023-03-13T16:10:53;18.30;99.90
19538;DHT22;9914;51.008;4.300;2023-03-13T16:13:19;18.20;99.90
19538;DHT22;9914;51.008;4.300;2023-03-13T16:15:45;18.30;99.90
19538;DHT22;9914;51.008;4.300;2023-03-13T16:18:23;18.40;99.90
19538;DHT22;9914;51.008;4.300;2023-03-13T16:20:49;18.60;99.90
19538;DHT22;9914;51.008;4.300;2023-03-13T16:23:15;18.50;99.90
19538;DHT22;9914;51.008;4.300;2023-03-13T16:25:45;18.20;99.90
19538;DHT22;9914;51.008;4.300;2023-03-13T16:28:12;18.20;99.90
19538;DHT22;9914;51.008;4.300;2023-03-13T16:30:38;18.00;99.90
19538;DHT22;9914;51.008;4.300;2023-03-13T16:33:06;17.90;99.90
19538;DHT22;9914;51.008;4.300;2023-03-13T16:35:31;17.60;99.90
19538;DHT22;9914;51.008;4.300;2023-03-13T16:37:57;17.60;99.90
19538;DHT22;9914;51.008;4.300;2023-03-13T16:40:29;17.80;99.90
19538;DHT22;9914;51.008;4.300;2023-03-13T16:42:54;17.70;99.90
19538;DHT22;9914;51.008;4.300;2023-03-13T16:45:20;17.80;99.90
19538;DHT22;9914;51.008;4.300;2023-03-13T16:47:46;18.00;99.90
19538;DHT22;9914;51.008;4.300;2023-03-13T16:50:31;18.00;99.90
19538;DHT22;9914;51.008;4.300;2023-03-13T16:52:57;18.00;99.90
19538;DHT22;9914;51.008;4.300;2023-03-13T16:55:24;17.80;99.90
19538;DHT22;9914;51.008;4.300;2023-03-13T16:57:54;17.70;99.90
19538;DHT22;9914;51.008;4.300;2023-03-13T17:00:20;17.80;99.90
19538;DHT22;9914;51.008;4.300;2023-03-13T17:02:47;17.90;99.90
19538;DHT22;9914;51.008;4.300;2023-03-13T17:05:13;17.90;99.90
19538;DHT22;9914;51.008;4.300;2023-03-13T17:07:41;17.90;99.90
19538;DHT22;9914;51.008;4.300;2023-03-13T17:10:27;17.70;99.90
19538;DHT22;9914;51.008;4.300;2023-03-13T17:12:52;17.60;99.90
19538;DHT22;9914;51.008;4.300;2023-03-13T17:15:19;17.50;99.90
19538;DHT22;9914;51.008;4.300;2023-03-13T17:17:46;17.40;99.90
19538;DHT22;9914;51.008;4.300;2023-03-13T17:20:26;17.20;99.90
19538;DHT22;9914;51.008;4.300;2023-03-13T17:22:53;17.10;99.90
19538;DHT22;9914;51.008;4.300;2023-03-13T17:25:20;17.00;99.90
19538;DHT22;9914;51.008;4.300;2023-03-13T17:27:46;16.90;99.90
19538;DHT22;9914;51.008;4.300;2023-03-13T17:30:29;16.80;99.90
19538;DHT22;9914;51.008;4.300;2023-03-13T17:32:55;16.80;99.90
19538;DHT22;9914;51.008;4.300;2023-03-13T17:35:22;16.80;99.90
19538;DHT22;9914;51.008;4.300;2023-03-13T17:37:48;16.80;99.90
19538;DHT22;9914;51.008;4.300;2023-03-13T17:40:15;16.70;99.90
19538;DHT22;9914;51.008;4.300;2023-03-13T17:42:42;16.60;99.90
19538;DHT22;9914;51.008;4.300;2023-03-13T17:45:08;16.60;99.90
19538;DHT22;9914;51.008;4.300;2023-03-13T17:47:33;16.50;99.90
19538;DHT22;9914;51.008;4.300;2023-03-13T17:49:59;16.50;99.90
19538;DHT22;9914;51.008;4.300;2023-03-13T17:52:25;16.50;99.90